Aérodrome :
LOGIN :

S'inscrire | Disclaimer

   EN    FR    IT 

 










Légende :    VFR   VFR Marginal   IFR   IFR Intensif   IFR Très Intensif
Visi : 
Plafond : 
>= 8 km
>= 3000ft
5 à 8 km
1000 à 3000 ft
1500m à 5 km
500 à 1000 ft
800 à 1500m
200 à 500 ft
< 800m
< 200 ft
Symboles :   Orages  Brouillard  Fortes neiges  Fortes précipitations  Vent > 20 kt
SIGMETs :   Divers  Orages  Givrage  Turbulence  Onde Orograph.  Cendres Volcan.






- Altitude de l'aérodrome : 863 ft
- Code IATA : ZAZ


LEZG - Zaragoza Aragon

DERNIER METAR :
  • 152000Z 19005KT 150V210 CAVOK 10/05 Q1012

METARs EXPIRÉS :
  • 151930Z 18003KT 120V260 CAVOK 10/05 Q1012
  • 151900Z 15003KT 120V180 CAVOK 11/05 Q1012
  • 151830Z 19003KT 130V230 CAVOK 11/05 Q1012
  • 151800Z 20005KT CAVOK 11/05 Q1012
  • 151730Z 23004KT CAVOK 12/05 Q1012

TAF AMD TAF LEZG
Valide du 15 à 18h jusqu'au 16 à 18h UTC


151804Z 1518/1618 18005KT 9999 FEW050 TX14/1614Z TN07/1606Z
BECMG 1608/1610 12015KT



MET'MAP, la Météo Aéronautique d'un coup d'oeil ! - Copyright ORBIFLY Décembre 2007 - Disclaimer

ORBIFLY MET'MAP TEAM :

Programmation & Développement : Alexandra Zaïnal
Sur une idée originale de : Baudouin d'Aumeries
Assistance à la programmation : Marc-Olivier Méhu
Soutien technique & logistique : Manuel Goepfert

Contact : metmap@orbifly.com




SOURCES & CREDITS :

   NOAA